Time;durP1;ratioP1;P1;durP2;ratioP2;P2;SDS_P1;SDS_P2;PMS_P1;PMS_P2;Temp;Humidity;BMP_temperature;BMP_pressure;BME280_temperature;BME280_humidity;BME280_pressure;Samples;Min_cycle;Max_cycle;Signal;HPM_P1;HPM_P2
2023/05/22 00:01:43;;;;;;;14.95;13.00;;;15.00;99.90;;;;;;5070599;28;20060;-74
2023/05/22 00:04:09;;;;;;;14.85;12.93;;;15.00;99.90;;;;;;5069666;28;20103;-74
2023/05/22 00:06:35;;;;;;;14.73;13.13;;;15.00;99.90;;;;;;5057212;28;20108;-71
2023/05/22 00:09:00;;;;;;;15.48;13.77;;;15.00;99.90;;;;;;5053764;28;20128;-74
2023/05/22 00:11:26;;;;;;;15.13;13.52;;;15.00;99.90;;;;;;5069836;28;20024;-73
2023/05/22 00:13:52;;;;;;;17.52;14.35;;;15.00;99.90;;;;;;5062462;28;20170;-74
2023/05/22 00:16:17;;;;;;;14.45;12.93;;;14.90;99.90;;;;;;5065747;28;20025;-73
2023/05/22 00:18:43;;;;;;;14.52;13.02;;;14.90;99.90;;;;;;5073529;28;20465;-73
2023/05/22 00:21:09;;;;;;;15.13;13.20;;;14.80;99.90;;;;;;5080881;28;20048;-73
2023/05/22 00:23:35;;;;;;;15.40;13.15;;;14.80;99.90;;;;;;5070377;28;20103;-71
2023/05/22 00:26:00;;;;;;;16.67;12.75;;;14.80;99.90;;;;;;5053881;28;20227;-75
2023/05/22 00:28:27;;;;;;;15.38;13.38;;;14.70;99.90;;;;;;5043300;28;20500;-72
2023/05/22 00:30:53;;;;;;;15.68;13.57;;;14.70;99.90;;;;;;5050357;28;20037;-73
2023/05/22 00:33:19;;;;;;;15.45;13.60;;;14.70;99.90;;;;;;5047888;28;20036;-71
2023/05/22 00:35:44;;;;;;;13.75;12.20;;;14.60;99.90;;;;;;5054946;28;20107;-74
2023/05/22 00:38:31;;;;;;;14.45;12.82;;;14.60;99.90;;;;;;5054353;28;20160;-73
2023/05/22 00:40:57;;;;;;;15.55;12.82;;;14.60;99.90;;;;;;5050171;28;20627;-74
2023/05/22 00:43:22;;;;;;;16.58;14.00;;;14.50;99.90;;;;;;5061378;28;20107;-74
2023/05/22 00:45:48;;;;;;;15.77;13.15;;;14.50;99.90;;;;;;5055587;28;20456;-74
2023/05/22 00:48:14;;;;;;;18.00;14.35;;;14.50;99.90;;;;;;5055665;28;20043;-73
2023/05/22 00:50:41;;;;;;;15.55;13.90;;;14.50;99.90;;;;;;5054567;28;20041;-71
2023/05/22 00:53:06;;;;;;;15.73;14.13;;;14.50;99.90;;;;;;5073068;28;20028;-73
2023/05/22 00:55:32;;;;;;;15.25;13.57;;;14.40;99.90;;;;;;5073818;28;20021;-74
2023/05/22 00:57:58;;;;;;;17.88;14.48;;;14.40;99.90;;;;;;5065965;28;20876;-74
2023/05/22 01:00:24;;;;;;;16.25;14.55;;;14.30;99.90;;;;;;5057128;28;20520;-74
2023/05/22 01:02:50;;;;;;;15.60;13.90;;;14.30;99.90;;;;;;5064360;28;20060;-74
2023/05/22 01:05:16;;;;;;;15.68;13.55;;;14.30;99.90;;;;;;5067129;28;20059;-73
2023/05/22 01:07:44;;;;;;;15.82;14.07;;;14.30;99.90;;;;;;5059097;28;20041;-73
2023/05/22 01:10:10;;;;;;;15.13;13.63;;;14.20;99.90;;;;;;5072341;28;20148;-74
2023/05/22 01:13:00;;;;;;;16.73;13.98;;;14.20;99.90;;;;;;5063372;28;20036;-71
2023/05/22 01:15:40;;;;;;;19.95;15.73;;;14.20;99.90;;;;;;5072937;28;20078;-74
2023/05/22 01:18:28;;;;;;;17.65;15.05;;;14.20;99.90;;;;;;5062315;28;20549;-74
2023/05/22 01:21:03;;;;;;;18.13;14.65;;;14.20;99.90;;;;;;5067064;28;20214;-74
2023/05/22 01:24:10;;;;;;;17.63;14.63;;;14.10;99.90;;;;;;5047943;28;20035;-74
2023/05/22 01:26:57;;;;;;;17.20;14.45;;;14.00;99.90;;;;;;5052716;28;20064;-72
2023/05/22 01:29:23;;;;;;;17.27;14.38;;;14.00;99.90;;;;;;5056146;28;20043;-74
2023/05/22 01:31:50;;;;;;;17.73;15.02;;;14.00;99.90;;;;;;5067363;28;20107;-74
2023/05/22 01:34:17;;;;;;;16.90;14.10;;;13.90;99.90;;;;;;5065864;28;20086;-75
2023/05/22 01:36:45;;;;;;;17.13;14.43;;;13.90;99.90;;;;;;5072263;28;20028;-73
2023/05/22 01:39:11;;;;;;;18.27;14.73;;;13.90;99.90;;;;;;5072066;28;20371;-74
2023/05/22 01:41:39;;;;;;;15.85;14.15;;;13.80;99.90;;;;;;5060785;28;20028;-71
2023/05/22 01:44:05;;;;;;;17.45;15.07;;;13.80;99.90;;;;;;5063837;28;20484;-74
2023/05/22 01:46:30;;;;;;;18.02;16.13;;;13.80;99.90;;;;;;5071909;28;20055;-73
2023/05/22 01:48:57;;;;;;;18.17;15.80;;;13.80;99.90;;;;;;5077216;28;20629;-74
2023/05/22 01:51:28;;;;;;;19.73;16.92;;;13.80;99.90;;;;;;5073831;28;20527;-74
2023/05/22 01:54:04;;;;;;;25.13;17.88;;;13.80;99.90;;;;;;5072577;28;20094;-74
2023/05/22 01:56:45;;;;;;;21.15;16.98;;;13.80;99.90;;;;;;5073177;28;20473;-74
2023/05/22 01:59:29;;;;;;;;;;;13.80;99.90;;;;;;5073181;28;20034;-74
2023/05/22 02:01:57;;;;;;;19.98;16.50;;;13.80;99.90;;;;;;5057866;28;19921;-72
2023/05/22 02:04:24;;;;;;;20.25;16.95;;;13.80;99.90;;;;;;5056069;28;20107;-73
2023/05/22 02:06:52;;;;;;;21.10;18.10;;;13.90;99.90;;;;;;5056527;28;20106;-73
2023/05/22 02:09:20;;;;;;;20.13;16.90;;;13.90;99.90;;;;;;5056775;28;20063;-73
2023/05/22 02:11:46;;;;;;;18.00;15.50;;;;;;;;;;5076934;28;20096;-73
2023/05/22 02:14:12;;;;;;;16.95;15.25;;;;;;;;;;5071962;28;20056;-74
2023/05/22 02:16:38;;;;;;;18.30;15.70;;;;;;;;;;5071862;28;20074;-71
2023/05/22 02:19:04;;;;;;;17.92;15.90;;;;;;;;;;5072030;28;20056;-74
2023/05/22 02:21:31;;;;;;;23.48;17.30;;;;;;;;;;5064870;28;20052;-74
2023/05/22 02:23:57;;;;;;;19.95;15.77;;;13.90;99.90;;;;;;5070353;28;20494;-74
2023/05/22 02:26:23;;;;;;;18.92;16.20;;;13.70;99.90;;;;;;5066361;28;20025;-74
2023/05/22 02:28:48;;;;;;;18.42;15.35;;;13.70;99.90;;;;;;5066530;28;20032;-72
2023/05/22 02:31:15;;;;;;;21.02;16.95;;;13.60;99.90;;;;;;5067152;28;20057;-73
2023/05/22 02:33:40;;;;;;;17.63;15.77;;;13.60;99.90;;;;;;5069238;28;20050;-73
2023/05/22 02:36:09;;;;;;;17.33;15.52;;;13.60;99.90;;;;;;5071357;28;20025;-72
2023/05/22 02:38:35;;;;;;;18.80;16.80;;;13.60;99.90;;;;;;5064635;28;20043;-71
2023/05/22 02:41:01;;;;;;;18.27;16.30;;;13.60;99.90;;;;;;5052086;28;20389;-72
2023/05/22 02:43:27;;;;;;;19.23;16.73;;;13.60;99.90;;;;;;5054595;28;20465;-73
2023/05/22 02:45:52;;;;;;;20.48;16.80;;;13.60;99.90;;;;;;5051983;28;20025;-74
2023/05/22 02:48:18;;;;;;;19.67;16.98;;;13.70;99.90;;;;;;5057590;28;20033;-74
2023/05/22 02:50:44;;;;;;;18.10;16.20;;;13.70;99.90;;;;;;5065047;28;20021;-74
2023/05/22 02:53:09;;;;;;;21.80;17.38;;;13.80;99.90;;;;;;5070908;28;20085;-74
2023/05/22 02:55:35;;;;;;;18.45;16.48;;;13.80;99.90;;;;;;5071353;28;20377;-71
2023/05/22 02:58:01;;;;;;;19.58;16.55;;;13.80;99.90;;;;;;5070392;28;20120;-73
2023/05/22 03:00:27;;;;;;;17.35;15.10;;;13.90;99.90;;;;;;5063826;28;20032;-73
2023/05/22 03:02:53;;;;;;;17.95;15.40;;;13.90;99.90;;;;;;5055109;28;20063;-73
2023/05/22 03:05:18;;;;;;;16.38;14.65;;;13.90;99.90;;;;;;5055627;28;20070;-73
2023/05/22 03:07:44;;;;;;;17.83;15.32;;;13.80;99.90;;;;;;5051375;28;20033;-73
2023/05/22 03:10:10;;;;;;;18.15;16.25;;;13.80;99.90;;;;;;5057266;28;20036;-72
2023/05/22 03:12:35;;;;;;;19.17;16.17;;;13.80;99.90;;;;;;5056918;28;20154;-71
2023/05/22 03:15:02;;;;;;;18.55;16.55;;;13.80;99.90;;;;;;5055092;28;20028;-74
2023/05/22 03:17:27;;;;;;;20.73;18.45;;;13.80;99.90;;;;;;5054440;28;20041;-74
2023/05/22 03:19:53;;;;;;;18.85;16.30;;;13.70;99.90;;;;;;5054838;28;20353;-74
2023/05/22 03:22:18;;;;;;;19.10;16.10;;;13.80;99.90;;;;;;5056932;28;20025;-73
2023/05/22 03:24:44;;;;;;;18.67;15.98;;;13.70;99.90;;;;;;5054096;28;20076;-73
2023/05/22 03:27:13;;;;;;;18.58;15.73;;;13.70;99.90;;;;;;5052633;28;20397;-72
2023/05/22 03:29:39;;;;;;;19.67;16.27;;;13.70;99.90;;;;;;5054630;28;20029;-72
2023/05/22 03:32:04;;;;;;;18.95;16.73;;;13.70;99.90;;;;;;5068317;28;20081;-74
2023/05/22 03:34:31;;;;;;;19.20;16.55;;;13.70;99.90;;;;;;5070501;28;20021;-72
2023/05/22 03:36:56;;;;;;;21.70;18.48;;;13.70;99.90;;;;;;5068847;28;20527;-74
2023/05/22 03:39:22;;;;;;;22.48;18.75;;;13.70;99.90;;;;;;5063092;28;20048;-73
2023/05/22 03:41:48;;;;;;;26.33;19.02;;;13.80;99.90;;;;;;5070272;28;20392;-74
2023/05/22 03:44:13;;;;;;;20.67;17.70;;;13.80;99.90;;;;;;5069809;28;20047;-75
2023/05/22 03:46:39;;;;;;;21.05;18.17;;;13.80;99.90;;;;;;5054186;28;20048;-71
2023/05/22 03:49:04;;;;;;;21.45;18.38;;;13.90;99.90;;;;;;5054551;28;20144;-73
2023/05/22 03:51:30;;;;;;;20.00;16.60;;;13.90;99.90;;;;;;5057862;28;20039;-74
2023/05/22 03:53:56;;;;;;;19.33;17.08;;;13.90;99.90;;;;;;5073711;28;20504;-73
2023/05/22 03:56:21;;;;;;;19.75;17.65;;;14.00;99.90;;;;;;5071719;28;20033;-74
2023/05/22 03:58:48;;;;;;;19.35;15.93;;;14.00;99.90;;;;;;5070423;28;20483;-74
2023/05/22 04:01:15;;;;;;;19.88;17.13;;;14.00;99.90;;;;;;5071539;28;20094;-74
2023/05/22 04:03:41;;;;;;;21.17;16.70;;;14.10;99.90;;;;;;5070319;28;20028;-73
2023/05/22 04:06:07;;;;;;;18.02;16.13;;;14.10;99.90;;;;;;5071175;28;20074;-74
2023/05/22 04:08:32;;;;;;;19.27;16.58;;;14.10;99.90;;;;;;5068047;28;20064;-74
2023/05/22 04:10:58;;;;;;;21.35;18.23;;;14.20;99.90;;;;;;5052515;28;20082;-72
2023/05/22 04:13:24;;;;;;;20.20;17.02;;;14.20;99.90;;;;;;5054849;28;20363;-71
2023/05/22 04:15:51;;;;;;;19.52;17.45;;;14.30;99.90;;;;;;5056479;28;20060;-72
2023/05/22 04:18:17;;;;;;;19.88;17.13;;;14.30;99.90;;;;;;5062824;28;20038;-73
2023/05/22 04:20:42;;;;;;;17.80;15.70;;;14.40;99.90;;;;;;5067153;28;20107;-74
2023/05/22 04:23:08;;;;;;;17.30;15.35;;;14.40;99.90;;;;;;5070157;28;20063;-73
2023/05/22 04:25:35;;;;;;;17.48;15.63;;;14.40;99.90;;;;;;5075250;28;20017;-74
2023/05/22 04:28:02;;;;;;;20.42;17.35;;;14.50;99.90;;;;;;5073892;28;20032;-74
2023/05/22 04:30:29;;;;;;;18.90;15.85;;;14.50;99.90;;;;;;5074970;28;20025;-74
2023/05/22 04:32:56;;;;;;;18.27;16.38;;;14.50;99.90;;;;;;5073545;28;20021;-75
2023/05/22 04:35:21;;;;;;;18.25;14.95;;;14.60;99.90;;;;;;5074746;28;20028;-74
2023/05/22 04:37:47;;;;;;;17.73;15.52;;;14.60;99.90;;;;;;5078541;28;20032;-73
2023/05/22 04:40:14;;;;;;;19.90;15.95;;;14.60;99.90;;;;;;5073991;28;20036;-75
2023/05/22 04:42:41;;;;;;;18.55;15.63;;;14.70;99.90;;;;;;5072817;28;20111;-72
2023/05/22 04:45:07;;;;;;;18.52;15.40;;;14.70;99.90;;;;;;5073930;28;20185;-74
2023/05/22 04:47:33;;;;;;;19.33;16.45;;;14.80;99.90;;;;;;5065813;28;20041;-72
2023/05/22 04:49:59;;;;;;;20.00;17.13;;;14.80;99.90;;;;;;5069877;28;20182;-75
2023/05/22 04:52:25;;;;;;;20.35;15.85;;;14.90;99.90;;;;;;5068218;28;20043;-73
2023/05/22 04:54:51;;;;;;;19.52;16.40;;;15.00;99.90;;;;;;5064741;28;20033;-73
2023/05/22 04:57:18;;;;;;;23.65;17.48;;;15.10;99.90;;;;;;5072567;28;20032;-76
2023/05/22 04:59:44;;;;;;;20.02;17.48;;;15.20;99.90;;;;;;5072525;28;20060;-74
2023/05/22 05:02:10;;;;;;;27.58;17.60;;;15.30;99.90;;;;;;5062978;28;20033;-72
2023/05/22 05:04:36;;;;;;;19.88;15.95;;;15.40;99.90;;;;;;5062726;28;20465;-71
2023/05/22 05:07:03;;;;;;;18.38;16.27;;;15.40;99.90;;;;;;5063184;28;20047;-73
2023/05/22 05:09:28;;;;;;;22.67;16.42;;;15.50;99.90;;;;;;5072990;28;20100;-74
2023/05/22 05:11:54;;;;;;;19.13;15.63;;;15.50;99.90;;;;;;5068430;28;20136;-73
2023/05/22 05:14:20;;;;;;;18.40;15.35;;;15.50;99.90;;;;;;5069076;28;20086;-73
2023/05/22 05:16:46;;;;;;;15.85;14.15;;;15.50;99.90;;;;;;5069556;28;20083;-73
2023/05/22 05:19:12;;;;;;;19.23;15.60;;;15.60;99.90;;;;;;5059400;28;20029;-75
2023/05/22 05:21:38;;;;;;;18.33;16.40;;;15.70;99.90;;;;;;5063599;28;20396;-72
2023/05/22 05:24:05;;;;;;;21.13;16.50;;;15.80;99.90;;;;;;5054655;28;20020;-71
2023/05/22 05:26:30;;;;;;;18.77;16.20;;;15.90;99.90;;;;;;5053161;28;20489;-71
2023/05/22 05:28:56;;;;;;;18.50;15.40;;;16.00;99.90;;;;;;5061307;28;20032;-72
2023/05/22 05:31:22;;;;;;;18.23;15.32;;;16.10;99.90;;;;;;5063259;28;20446;-79
2023/05/22 05:33:48;;;;;;;20.05;15.95;;;16.20;99.90;;;;;;5056305;28;20035;-69
2023/05/22 05:36:15;;;;;;;22.35;17.50;;;16.30;99.90;;;;;;5054383;28;20024;-69
2023/05/22 05:38:41;;;;;;;22.90;17.17;;;16.50;99.90;;;;;;5053517;28;20059;-74
2023/05/22 05:41:06;;;;;;;18.58;16.15;;;16.60;99.90;;;;;;5051627;28;20025;-74
2023/05/22 05:43:32;;;;;;;19.52;17.52;;;16.80;99.90;;;;;;5056942;28;20025;-73
2023/05/22 05:45:57;;;;;;;25.02;17.35;;;17.00;99.90;;;;;;5054703;28;20017;-72
2023/05/22 05:48:23;;;;;;;18.13;16.13;;;17.10;99.90;;;;;;5064311;28;20039;-72
2023/05/22 05:50:48;;;;;;;18.88;16.00;;;17.20;99.90;;;;;;5071969;28;20052;-72
2023/05/22 05:53:15;;;;;;;19.98;15.70;;;17.20;99.90;;;;;;5054416;28;20028;-68
2023/05/22 05:55:40;;;;;;;18.40;14.50;;;17.30;99.90;;;;;;5053957;28;20538;-72
2023/05/22 05:58:06;;;;;;;18.00;14.05;;;17.40;99.90;;;;;;5041850;28;20108;-72
2023/05/22 06:00:32;;;;;;;22.20;14.57;;;17.50;99.90;;;;;;5056283;28;20021;-70
2023/05/22 06:02:58;;;;;;;14.02;12.48;;;17.60;99.90;;;;;;5054633;28;20059;-69
2023/05/22 06:05:23;;;;;;;16.58;13.18;;;17.80;99.90;;;;;;5057649;28;20071;-69
2023/05/22 06:07:49;;;;;;;17.63;14.35;;;17.90;99.90;;;;;;5053654;28;20048;-72
2023/05/22 06:10:14;;;;;;;16.17;13.65;;;18.10;99.90;;;;;;5057580;28;20541;-72
2023/05/22 06:12:40;;;;;;;16.52;13.25;;;18.20;99.90;;;;;;5055546;28;20421;-69
2023/05/22 06:15:07;;;;;;;14.35;12.85;;;18.40;99.90;;;;;;5054417;28;20029;-72
2023/05/22 06:17:33;;;;;;;18.73;13.43;;;18.50;99.90;;;;;;5055020;28;20108;-72
2023/05/22 06:19:59;;;;;;;14.55;13.05;;;18.50;99.90;;;;;;5054308;28;20044;-71
2023/05/22 06:22:25;;;;;;;17.42;14.00;;;18.50;99.90;;;;;;5056093;28;20037;-73
2023/05/22 06:24:53;;;;;;;17.30;13.43;;;18.60;99.90;;;;;;5048942;28;20036;-72
2023/05/22 06:27:23;;;;;;;17.80;13.63;;;18.60;99.90;;;;;;5053682;28;20533;-71
2023/05/22 06:29:49;;;;;;;19.23;13.73;;;18.70;99.90;;;;;;5054190;28;20033;-71
2023/05/22 06:32:15;;;;;;;19.17;15.40;;;18.80;99.90;;;;;;5054617;28;20079;-70
2023/05/22 06:34:43;;;;;;;17.88;13.65;;;18.80;99.90;;;;;;5052188;28;20037;-72
2023/05/22 06:37:09;;;;;;;18.80;14.50;;;18.90;99.90;;;;;;5055131;28;20043;-72
2023/05/22 06:39:34;;;;;;;20.17;14.20;;;19.00;99.90;;;;;;5051703;28;20046;-69
2023/05/22 06:42:00;;;;;;;17.90;13.50;;;19.00;99.90;;;;;;5058165;28;20380;-71
2023/05/22 06:44:26;;;;;;;19.73;15.43;;;19.10;99.90;;;;;;5066910;28;20020;-71
2023/05/22 06:46:51;;;;;;;22.65;15.02;;;19.20;99.90;;;;;;5070031;28;20384;-72
2023/05/22 06:49:18;;;;;;;22.25;15.32;;;19.30;99.90;;;;;;5070070;28;20056;-73
2023/05/22 06:51:44;;;;;;;18.52;14.45;;;19.40;99.90;;;;;;5055877;28;20436;-71
2023/05/22 06:54:11;;;;;;;13.95;12.20;;;19.50;99.90;;;;;;5069432;28;20094;-73
2023/05/22 06:56:37;;;;;;;18.17;15.35;;;19.60;99.90;;;;;;5059461;28;20033;-69
2023/05/22 06:59:03;;;;;;;18.73;14.68;;;19.70;99.90;;;;;;5059646;28;20025;-71
2023/05/22 07:01:29;;;;;;;18.15;14.60;;;19.90;99.90;;;;;;5062241;28;20135;-72
2023/05/22 07:03:56;;;;;;;17.60;13.82;;;19.90;99.90;;;;;;5062650;28;20665;-71
2023/05/22 07:06:23;;;;;;;15.80;14.10;;;20.00;99.90;;;;;;5061713;28;20036;-70
2023/05/22 07:08:49;;;;;;;24.02;15.18;;;20.10;99.90;;;;;;5060353;28;20029;-72
2023/05/22 07:11:15;;;;;;;17.73;15.02;;;20.30;99.90;;;;;;5061290;28;20377;-72
2023/05/22 07:13:40;;;;;;;18.42;13.90;;;20.40;99.90;;;;;;5060881;28;20054;-71
2023/05/22 07:16:06;;;;;;;18.20;15.73;;;20.50;99.90;;;;;;5071772;28;20032;-71
2023/05/22 07:18:32;;;;;;;20.77;13.07;;;20.50;99.90;;;;;;5066138;28;20466;-74
2023/05/22 07:20:58;;;;;;;16.15;14.27;;;20.50;99.90;;;;;;5058331;28;20027;-72
2023/05/22 07:23:23;;;;;;;22.10;14.20;;;20.40;99.90;;;;;;5051651;28;20029;-73
2023/05/22 07:25:49;;;;;;;25.25;13.77;;;20.50;99.90;;;;;;5059612;28;20075;-72
2023/05/22 07:28:14;;;;;;;27.15;14.27;;;20.60;99.90;;;;;;5062748;28;20377;-71
2023/05/22 07:30:40;;;;;;;18.67;14.55;;;20.90;99.90;;;;;;5060028;28;20481;-71
2023/05/22 07:33:06;;;;;;;22.52;14.20;;;21.10;99.90;;;;;;5061942;28;20462;-71
2023/05/22 07:35:32;;;;;;;25.08;14.55;;;21.30;99.90;;;;;;5070410;28;20028;-71
2023/05/22 07:37:57;;;;;;;23.35;13.10;;;21.50;99.90;;;;;;5059585;28;20029;-71
2023/05/22 07:40:23;;;;;;;22.25;13.02;;;21.60;99.90;;;;;;5056447;28;20389;-71
2023/05/22 07:42:48;;;;;;;16.48;13.55;;;21.70;99.90;;;;;;5058518;28;20036;-71
2023/05/22 07:45:14;;;;;;;23.70;14.30;;;21.80;99.90;;;;;;5068161;28;20103;-72
2023/05/22 07:47:39;;;;;;;17.75;13.75;;;21.90;99.90;;;;;;5061772;28;20029;-69
2023/05/22 07:50:06;;;;;;;16.75;12.93;;;22.00;99.90;;;;;;5075809;28;20599;-72
2023/05/22 07:52:31;;;;;;;18.38;13.43;;;22.00;99.90;;;;;;5074667;28;20074;-72
2023/05/22 07:54:57;;;;;;;21.08;13.60;;;22.10;99.90;;;;;;5085390;28;20028;-72
2023/05/22 07:57:23;;;;;;;19.80;13.32;;;22.20;99.90;;;;;;5074550;28;20033;-70
2023/05/22 07:59:49;;;;;;;16.77;13.63;;;22.40;99.90;;;;;;5072832;28;20082;-73
2023/05/22 08:02:16;;;;;;;14.60;11.00;;;22.50;99.90;;;;;;5074851;28;20032;-73
2023/05/22 08:04:43;;;;;;;21.00;13.73;;;22.60;99.90;;;;;;5072944;28;20119;-74
2023/05/22 08:07:09;;;;;;;24.27;12.13;;;22.80;99.90;;;;;;5074318;28;20382;-73
2023/05/22 08:09:37;;;;;;;23.80;14.05;;;23.00;99.90;;;;;;5056066;28;20461;-70
2023/05/22 08:12:03;;;;;;;27.88;12.52;;;23.00;99.90;;;;;;5074320;28;20879;-73
2023/05/22 08:14:29;;;;;;;16.02;13.85;;;23.10;99.90;;;;;;5074409;28;20020;-74
2023/05/22 08:16:57;;;;;;;15.75;13.15;;;23.20;99.90;;;;;;5065100;28;20484;-73
2023/05/22 08:19:23;;;;;;;14.43;12.00;;;23.40;99.90;;;;;;5074143;28;20457;-72
2023/05/22 08:21:51;;;;;;;15.43;11.80;;;23.40;99.90;;;;;;5069905;28;20086;-73
2023/05/22 08:24:17;;;;;;;21.73;13.43;;;23.40;99.90;;;;;;5068117;28;20021;-72
2023/05/22 08:26:43;;;;;;;16.27;14.00;;;23.70;99.90;;;;;;5068678;28;20123;-72
2023/05/22 08:29:08;;;;;;;19.38;13.82;;;24.00;99.90;;;;;;5068624;28;20101;-72
2023/05/22 08:31:34;;;;;;;18.83;14.45;;;24.00;99.90;;;;;;5070599;28;20051;-73
2023/05/22 08:34:01;;;;;;;13.93;12.15;;;24.00;99.90;;;;;;5071031;28;20025;-73
2023/05/22 08:36:28;;;;;;;16.23;12.55;;;23.90;99.90;;;;;;5065780;28;20056;-73
2023/05/22 08:38:54;;;;;;;18.08;13.85;;;23.90;99.90;;;;;;5067590;28;20043;-73
2023/05/22 08:41:20;;;;;;;20.27;12.82;;;23.90;99.90;;;;;;5066524;28;20028;-73
2023/05/22 08:43:46;;;;;;;17.45;12.88;;;23.90;99.90;;;;;;5067474;28;20031;-72
2023/05/22 08:46:14;;;;;;;22.92;13.80;;;23.90;99.90;;;;;;5065024;28;20024;-74
2023/05/22 08:48:41;;;;;;;23.38;14.00;;;23.90;99.90;;;;;;5071101;28;20057;-73
2023/05/22 08:51:07;;;;;;;24.20;14.18;;;23.80;99.90;;;;;;5066441;28;20024;-73
2023/05/22 08:53:37;;;;;;;26.40;13.93;;;23.70;99.90;;;;;;5069855;28;20032;-73
2023/05/22 08:56:10;;;;;;;14.30;10.85;;;23.60;99.90;;;;;;5062529;28;20017;-72
2023/05/22 08:58:36;;;;;;;25.40;11.82;;;23.50;99.90;;;;;;5072339;28;20461;-70
2023/05/22 09:01:04;;;;;;;20.13;12.48;;;23.50;99.90;;;;;;5067786;28;20121;-72
2023/05/22 09:03:33;;;;;;;19.52;11.77;;;23.50;99.90;;;;;;5077011;28;20032;-72
2023/05/22 09:06:00;;;;;;;17.90;12.05;;;23.60;99.90;;;;;;5054287;28;20033;-73
2023/05/22 09:08:27;;;;;;;24.17;13.73;;;23.70;99.90;;;;;;5061948;28;20032;-73
2023/05/22 09:10:55;;;;;;;17.48;11.75;;;23.90;99.90;;;;;;5070269;28;20027;-73
2023/05/22 09:13:25;;;;;;;13.20;10.48;;;24.30;99.90;;;;;;5064698;28;20485;-73
2023/05/22 09:15:51;;;;;;;22.05;10.85;;;24.70;99.90;;;;;;5061238;28;20052;-72
2023/05/22 09:18:16;;;;;;;14.57;10.15;;;25.10;99.90;;;;;;5071523;28;20059;-73
2023/05/22 09:20:42;;;;;;;12.95;11.65;;;25.50;99.90;;;;;;5072881;28;20376;-72
2023/05/22 09:23:13;;;;;;;18.63;10.05;;;25.90;99.90;;;;;;5074306;28;20021;-73
2023/05/22 09:25:41;;;;;;;19.52;12.07;;;26.00;99.90;;;;;;5072364;28;20036;-71
2023/05/22 09:28:06;;;;;;;14.30;11.98;;;25.80;99.90;;;;;;5080184;28;20029;-74
2023/05/22 09:30:35;;;;;;;22.30;11.02;;;25.50;99.80;;;;;;5075712;28;20029;-73
2023/05/22 09:33:01;;;;;;;12.85;11.00;;;25.50;99.90;;;;;;5072420;28;20029;-73
2023/05/22 09:35:26;;;;;;;12.48;11.18;;;25.50;99.90;;;;;;5073255;28;20032;-74
2023/05/22 09:37:54;;;;;;;18.60;11.52;;;25.70;99.90;;;;;;5061137;28;20044;-72
2023/05/22 09:40:21;;;;;;;13.70;11.20;;;25.90;99.90;;;;;;5069775;28;20036;-74
2023/05/22 09:42:46;;;;;;;28.90;13.55;;;26.20;99.60;;;;;;5056784;28;20027;-75
2023/05/22 09:45:12;;;;;;;19.92;12.02;;;26.40;99.90;;;;;;5070345;28;20025;-75
2023/05/22 09:47:39;;;;;;;12.88;10.98;;;26.50;99.90;;;;;;5066461;28;20041;-73
2023/05/22 09:50:09;;;;;;;16.95;9.90;;;;;;;;;;5064411;28;20052;-75
2023/05/22 09:52:36;;;;;;;14.57;11.27;;;;;;;;;;5081960;28;20039;-72
2023/05/22 09:55:03;;;;;;;20.02;12.18;;;;;;;;;;5072350;28;20033;-75
2023/05/22 09:57:31;;;;;;;14.85;11.88;;;;;;;;;;5072717;28;20078;-74
2023/05/22 09:59:58;;;;;;;19.10;11.60;;;;;;;;;;5064375;28;20020;-76
2023/05/22 10:02:25;;;;;;;15.95;10.10;;;27.80;96.00;;;;;;5070735;28;20027;-71
2023/05/22 10:04:52;;;;;;;14.45;9.75;;;27.80;96.20;;;;;;5074001;28;20035;-79
2023/05/22 10:07:38;;;;;;;36.58;11.07;;;;;;;;;;5071040;28;20108;-73
2023/05/22 10:10:10;;;;;;;15.75;10.38;;;;;;;;;;5081973;28;20024;-73
2023/05/22 10:13:00;;;;;;;29.77;11.00;;;28.00;94.80;;;;;;5071527;28;20051;-72
2023/05/22 10:15:25;;;;;;;;;;;28.10;95.20;;;;;;5057596;28;20115;-73
2023/05/22 10:17:52;;;;;;;11.82;10.30;;;27.80;95.70;;;;;;5069428;28;19919;-73
2023/05/22 10:20:18;;;;;;;14.25;9.57;;;27.40;95.80;;;;;;5075525;28;20086;-73
2023/05/22 10:22:45;;;;;;;16.13;10.65;;;27.30;96.30;;;;;;5063012;28;20504;-71
2023/05/22 10:25:12;;;;;;;15.98;10.55;;;27.50;95.60;;;;;;5079959;28;20074;-72
2023/05/22 10:27:39;;;;;;;13.98;11.80;;;27.60;95.90;;;;;;5072198;28;20079;-69
2023/05/22 10:30:27;;;;;;;12.40;9.82;;;27.60;95.00;;;;;;5059783;28;20040;-73
2023/05/22 10:33:03;;;;;;;17.10;11.10;;;27.60;95.30;;;;;;5072635;28;20097;-71
2023/05/22 10:35:42;;;;;;;15.65;10.68;;;27.70;95.10;;;;;;5070329;28;20122;-71
2023/05/22 10:38:13;;;;;;;12.82;10.25;;;27.80;94.60;;;;;;5073097;28;20043;-71
2023/05/22 10:40:40;;;;;;;12.32;10.32;;;27.90;95.00;;;;;;5074500;28;20162;-71
2023/05/22 10:43:06;;;;;;;16.25;11.57;;;27.90;94.80;;;;;;5068403;28;20068;-70
2023/05/22 10:45:32;;;;;;;15.48;11.05;;;27.80;94.60;;;;;;5073178;28;20075;-79
2023/05/22 10:48:05;;;;;;;15.18;10.90;;;27.70;94.70;;;;;;5078063;28;20612;-71
2023/05/22 10:50:31;;;;;;;10.75;9.68;;;27.70;94.50;;;;;;5084853;28;20094;-72
2023/05/22 10:53:21;;;;;;;13.02;10.75;;;27.80;94.00;;;;;;5072171;28;20040;-72
2023/05/22 10:55:55;;;;;;;14.37;11.40;;;27.90;94.50;;;;;;5056446;28;20486;-71
2023/05/22 10:58:37;;;;;;;14.32;10.45;;;27.70;94.00;;;;;;5066040;28;20822;-71
2023/05/22 11:01:15;;;;;;;10.82;9.60;;;27.60;94.50;;;;;;5069001;28;20066;-71
2023/05/22 11:03:55;;;;;;;12.07;9.88;;;27.70;94.10;;;;;;5067925;28;20473;-71
2023/05/22 11:06:37;;;;;;;;;;;27.80;94.00;;;;;;5060207;28;20031;-71
2023/05/22 11:09:31;;;;;;;16.88;10.75;;;27.90;94.30;;;;;;5070269;28;20436;-71
2023/05/22 11:12:23;;;;;;;13.88;12.20;;;28.10;94.00;;;;;;5070392;28;20445;-70
2023/05/22 11:14:50;;;;;;;13.52;10.63;;;28.00;93.40;;;;;;5069830;28;20033;-71
2023/05/22 11:17:29;;;;;;;10.98;9.80;;;28.00;93.80;;;;;;5071415;28;20032;-72
2023/05/22 11:20:19;;;;;;;12.00;9.38;;;28.20;93.80;;;;;;5062492;28;20097;-72
2023/05/22 11:23:05;;;;;;;10.60;8.82;;;28.30;93.00;;;;;;5061069;28;20037;-71
2023/05/22 11:25:32;;;;;;;12.32;10.00;;;28.50;93.90;;;;;;5064799;28;20173;-72
2023/05/22 11:28:01;;;;;;;13.00;10.98;;;28.70;93.60;;;;;;5079698;28;20583;-71
2023/05/22 11:30:29;;;;;;;13.35;11.10;;;28.40;93.80;;;;;;5066311;28;20025;-73
2023/05/22 11:32:57;;;;;;;13.25;10.38;;;28.20;94.10;;;;;;5061463;28;20154;-70
2023/05/22 11:35:23;;;;;;;14.88;10.52;;;28.20;93.60;;;;;;5057608;28;20036;-71
2023/05/22 11:37:50;;;;;;;14.57;9.90;;;28.30;94.00;;;;;;5069318;28;20032;-71
2023/05/22 11:40:19;;;;;;;14.90;9.63;;;28.50;93.60;;;;;;5060413;28;20028;-71
2023/05/22 11:42:46;;;;;;;20.13;10.07;;;28.70;93.40;;;;;;5057188;28;20029;-71
2023/05/22 11:45:12;;;;;;;13.82;9.98;;;29.00;92.00;;;;;;5064292;28;20044;-71
2023/05/22 11:47:38;;;;;;;14.35;9.98;;;29.10;93.00;;;;;;5062162;28;20044;-70
2023/05/22 11:50:07;;;;;;;10.77;9.48;;;29.20;93.20;;;;;;5061856;28;20067;-72
2023/05/22 11:52:35;;;;;;;12.35;9.93;;;29.30;91.50;;;;;;5073112;28;20063;-71
2023/05/22 11:55:02;;;;;;;11.15;9.05;;;29.10;89.40;;;;;;5069755;28;20044;-72
2023/05/22 11:57:30;;;;;;;10.57;9.43;;;29.10;89.40;;;;;;5070163;28;20025;-72
2023/05/22 11:59:57;;;;;;;11.13;8.85;;;29.20;88.20;;;;;;5069512;28;20649;-72
2023/05/22 12:02:22;;;;;;;12.00;9.35;;;29.40;87.60;;;;;;5070148;28;20477;-72
2023/05/22 12:04:56;;;;;;;9.88;8.45;;;29.70;89.10;;;;;;5070139;28;20039;-72
2023/05/22 12:07:23;;;;;;;12.77;10.05;;;29.80;90.10;;;;;;5067051;28;20013;-72
2023/05/22 12:09:49;;;;;;;11.70;9.15;;;29.90;91.00;;;;;;5069861;28;20048;-72
2023/05/22 12:12:15;;;;;;;14.30;9.48;;;30.20;97.90;;;;;;5070432;28;20063;-72
2023/05/22 12:14:43;;;;;;;15.02;9.77;;;;;;;;;;5067346;28;20045;-72
2023/05/22 12:17:11;;;;;;;11.15;9.75;;;;;;;;;;5058232;28;20546;-73
2023/05/22 12:19:39;;;;;;;10.68;9.55;;;;;;;;;;5055556;28;20385;-70
2023/05/22 12:22:05;;;;;;;10.77;8.95;;;;;;;;;;5060662;28;20052;-72
2023/05/22 12:24:47;;;;;;;10.30;9.32;;;;;;;;;;5062947;28;20021;-72
2023/05/22 12:27:13;;;;;;;11.40;8.82;;;;;;;;;;5054770;28;20453;-72
2023/05/22 12:29:39;;;;;;;10.18;9.07;;;;;;;;;;5058322;28;20036;-71
2023/05/22 12:32:09;;;;;;;10.57;9.43;;;;;;;;;;5069468;28;20438;-72
2023/05/22 12:34:35;;;;;;;;;;;;;;;;;;5065905;28;20012;-71
2023/05/22 12:37:01;;;;;;;11.52;10.10;;;;;;;;;;5068559;28;19908;-72
2023/05/22 12:39:31;;;;;;;11.77;9.45;;;;;;;;;;5072859;28;20040;-69
2023/05/22 12:41:56;;;;;;;9.55;8.63;;;;;;;;;;5072542;28;20028;-70